Terminal Aerodrome Forecast
Issued by NWS Detroit/Pontiac, MI

Home | Current Version | Previous Version | Text Only | Print | Product List | Glossary On
Versions: 1 2 3 4 5 6 7 8 9 10 11 12 13 14 15 16 17 18 19 20 21 22 23 24 25 26
003
FTUS43 KDTX 191523 AAA
TAFDTW
TAF AMD
KDTW 191523Z 1915/2018 28013G21KT P6SM SCT025 BKN045
      TEMPO 1915/1919 5SM -SHSN BR BKN035
     FM200000 27010KT P6SM BKN040
     FM200600 24008KT P6SM SCT060 SCT080 BKN100=

USA.gov is the U.S. government's official web portal to all federal, state and local government web resources and services.